sensor_id;sensor_type;location;lat;lon;timestamp;P1;durP1;ratioP1;P2;durP2;ratioP2
19802;SDS011;66074;50.764;6.090;2023-05-10T00:01:05;14.65;;;13.25;;
19802;SDS011;66074;50.764;6.090;2023-05-10T00:03:31;16.15;;;14.80;;
19802;SDS011;66074;50.764;6.090;2023-05-10T00:05:56;14.82;;;13.43;;
19802;SDS011;66074;50.764;6.090;2023-05-10T00:08:22;16.75;;;15.25;;
19802;SDS011;66074;50.764;6.090;2023-05-10T00:10:48;14.90;;;13.48;;
19802;SDS011;66074;50.764;6.090;2023-05-10T00:13:14;15.85;;;14.45;;
19802;SDS011;66074;50.764;6.090;2023-05-10T00:15:40;15.13;;;13.80;;
19802;SDS011;66074;50.764;6.090;2023-05-10T00:18:05;14.18;;;12.98;;
19802;SDS011;66074;50.764;6.090;2023-05-10T00:20:31;14.95;;;13.50;;
19802;SDS011;66074;50.764;6.090;2023-05-10T00:22:57;14.25;;;13.15;;
19802;SDS011;66074;50.764;6.090;2023-05-10T00:25:22;15.00;;;13.70;;
19802;SDS011;66074;50.764;6.090;2023-05-10T00:27:48;15.88;;;14.38;;
19802;SDS011;66074;50.764;6.090;2023-05-10T00:30:14;15.10;;;13.60;;
19802;SDS011;66074;50.764;6.090;2023-05-10T00:32:40;14.10;;;12.63;;
19802;SDS011;66074;50.764;6.090;2023-05-10T00:35:06;14.18;;;12.90;;
19802;SDS011;66074;50.764;6.090;2023-05-10T00:37:32;13.07;;;11.98;;
19802;SDS011;66074;50.764;6.090;2023-05-10T00:39:58;12.82;;;11.75;;
19802;SDS011;66074;50.764;6.090;2023-05-10T00:42:23;13.82;;;12.63;;
19802;SDS011;66074;50.764;6.090;2023-05-10T00:44:49;11.57;;;10.57;;
19802;SDS011;66074;50.764;6.090;2023-05-10T00:47:15;8.80;;;8.10;;
19802;SDS011;66074;50.764;6.090;2023-05-10T00:49:41;8.52;;;7.85;;
19802;SDS011;66074;50.764;6.090;2023-05-10T00:52:08;8.38;;;7.68;;
19802;SDS011;66074;50.764;6.090;2023-05-10T00:54:34;8.85;;;8.05;;
19802;SDS011;66074;50.764;6.090;2023-05-10T00:57:01;7.38;;;6.78;;
19802;SDS011;66074;50.764;6.090;2023-05-10T00:59:27;6.90;;;6.40;;
19802;SDS011;66074;50.764;6.090;2023-05-10T01:01:53;7.78;;;7.07;;
19802;SDS011;66074;50.764;6.090;2023-05-10T01:04:19;6.60;;;6.10;;
19802;SDS011;66074;50.764;6.090;2023-05-10T01:06:50;6.40;;;5.90;;
19802;SDS011;66074;50.764;6.090;2023-05-10T01:09:19;7.18;;;6.57;;
19802;SDS011;66074;50.764;6.090;2023-05-10T01:11:46;6.68;;;6.28;;
19802;SDS011;66074;50.764;6.090;2023-05-10T01:14:12;6.35;;;5.90;;
19802;SDS011;66074;50.764;6.090;2023-05-10T01:16:40;6.78;;;6.28;;
19802;SDS011;66074;50.764;6.090;2023-05-10T01:19:12;6.05;;;5.55;;
19802;SDS011;66074;50.764;6.090;2023-05-10T01:41:12;6.60;;;6.00;;
19802;SDS011;66074;50.764;6.090;2023-05-10T01:46:27;6.38;;;5.95;;
19802;SDS011;66074;50.764;6.090;2023-05-10T01:48:58;6.93;;;6.32;;
19802;SDS011;66074;50.764;6.090;2023-05-10T01:51:30;5.55;;;5.05;;
19802;SDS011;66074;50.764;6.090;2023-05-10T01:54:01;4.05;;;3.75;;
19802;SDS011;66074;50.764;6.090;2023-05-10T01:56:30;4.93;;;4.53;;
19802;SDS011;66074;50.764;6.090;2023-05-10T01:58:58;5.32;;;4.93;;
19802;SDS011;66074;50.764;6.090;2023-05-10T02:01:25;4.90;;;4.57;;
19802;SDS011;66074;50.764;6.090;2023-05-10T02:03:52;4.80;;;4.40;;
19802;SDS011;66074;50.764;6.090;2023-05-10T02:06:19;5.43;;;4.93;;
19802;SDS011;66074;50.764;6.090;2023-05-10T02:08:46;4.65;;;4.25;;
19802;SDS011;66074;50.764;6.090;2023-05-10T02:11:15;5.43;;;5.00;;
19802;SDS011;66074;50.764;6.090;2023-05-10T02:13:43;5.88;;;5.38;;
19802;SDS011;66074;50.764;6.090;2023-05-10T02:16:12;5.93;;;5.43;;
19802;SDS011;66074;50.764;6.090;2023-05-10T02:18:39;5.85;;;5.32;;
19802;SDS011;66074;50.764;6.090;2023-05-10T02:21:06;6.07;;;5.43;;
19802;SDS011;66074;50.764;6.090;2023-05-10T02:23:33;5.93;;;5.40;;
19802;SDS011;66074;50.764;6.090;2023-05-10T02:26:00;6.65;;;5.97;;
19802;SDS011;66074;50.764;6.090;2023-05-10T02:28:27;6.55;;;6.05;;
19802;SDS011;66074;50.764;6.090;2023-05-10T02:30:54;8.60;;;7.80;;
19802;SDS011;66074;50.764;6.090;2023-05-10T02:33:21;8.23;;;7.53;;
19802;SDS011;66074;50.764;6.090;2023-05-10T02:35:47;9.55;;;8.40;;
19802;SDS011;66074;50.764;6.090;2023-05-10T02:38:15;10.30;;;9.30;;
19802;SDS011;66074;50.764;6.090;2023-05-10T02:40:41;10.75;;;9.85;;
19802;SDS011;66074;50.764;6.090;2023-05-10T02:43:09;10.55;;;9.55;;
19802;SDS011;66074;50.764;6.090;2023-05-10T02:45:39;10.77;;;9.88;;
19802;SDS011;66074;50.764;6.090;2023-05-10T02:48:06;12.38;;;11.23;;
19802;SDS011;66074;50.764;6.090;2023-05-10T02:50:32;11.32;;;10.23;;
19802;SDS011;66074;50.764;6.090;2023-05-10T02:53:03;11.70;;;10.70;;
19802;SDS011;66074;50.764;6.090;2023-05-10T02:55:36;11.00;;;9.85;;
19802;SDS011;66074;50.764;6.090;2023-05-10T02:58:05;11.30;;;10.30;;
19802;SDS011;66074;50.764;6.090;2023-05-10T03:00:31;11.43;;;10.32;;
19802;SDS011;66074;50.764;6.090;2023-05-10T03:02:57;12.23;;;11.13;;
19802;SDS011;66074;50.764;6.090;2023-05-10T03:05:23;11.65;;;10.43;;
19802;SDS011;66074;50.764;6.090;2023-05-10T03:07:49;11.20;;;10.10;;
19802;SDS011;66074;50.764;6.090;2023-05-10T03:10:15;11.40;;;10.38;;
19802;SDS011;66074;50.764;6.090;2023-05-10T03:12:52;9.73;;;8.85;;
19802;SDS011;66074;50.764;6.090;2023-05-10T03:15:24;11.48;;;9.18;;
19802;SDS011;66074;50.764;6.090;2023-05-10T03:18:04;10.50;;;9.50;;
19802;SDS011;66074;50.764;6.090;2023-05-10T03:26:24;9.57;;;8.68;;
19802;SDS011;66074;50.764;6.090;2023-05-10T03:28:51;9.38;;;8.45;;
19802;SDS011;66074;50.764;6.090;2023-05-10T03:31:18;11.00;;;8.50;;
19802;SDS011;66074;50.764;6.090;2023-05-10T03:33:50;10.38;;;8.57;;
19802;SDS011;66074;50.764;6.090;2023-05-10T03:36:17;9.35;;;8.35;;
19802;SDS011;66074;50.764;6.090;2023-05-10T03:38:43;10.48;;;9.50;;
19802;SDS011;66074;50.764;6.090;2023-05-10T03:41:08;9.93;;;8.35;;
19802;SDS011;66074;50.764;6.090;2023-05-10T03:43:34;9.40;;;8.40;;
19802;SDS011;66074;50.764;6.090;2023-05-10T03:46:03;10.23;;;9.30;;
19802;SDS011;66074;50.764;6.090;2023-05-10T03:48:29;10.93;;;9.73;;
19802;SDS011;66074;50.764;6.090;2023-05-10T03:50:56;10.35;;;9.02;;
19802;SDS011;66074;50.764;6.090;2023-05-10T03:53:22;9.90;;;8.98;;
19802;SDS011;66074;50.764;6.090;2023-05-10T03:55:48;9.57;;;8.55;;
19802;SDS011;66074;50.764;6.090;2023-05-10T03:58:14;9.02;;;8.13;;
19802;SDS011;66074;50.764;6.090;2023-05-10T04:00:40;9.18;;;7.82;;
19802;SDS011;66074;50.764;6.090;2023-05-10T04:03:10;9.75;;;8.38;;
19802;SDS011;66074;50.764;6.090;2023-05-10T04:05:36;9.43;;;8.57;;
19802;SDS011;66074;50.764;6.090;2023-05-10T04:08:02;8.35;;;7.55;;
19802;SDS011;66074;50.764;6.090;2023-05-10T04:10:28;9.93;;;8.80;;
19802;SDS011;66074;50.764;6.090;2023-05-10T04:12:54;11.23;;;7.80;;
19802;SDS011;66074;50.764;6.090;2023-05-10T04:15:20;9.88;;;8.88;;
19802;SDS011;66074;50.764;6.090;2023-05-10T04:17:46;9.48;;;8.48;;
19802;SDS011;66074;50.764;6.090;2023-05-10T04:20:11;9.68;;;8.68;;
19802;SDS011;66074;50.764;6.090;2023-05-10T04:22:37;10.77;;;8.75;;
19802;SDS011;66074;50.764;6.090;2023-05-10T04:25:03;10.25;;;8.35;;
19802;SDS011;66074;50.764;6.090;2023-05-10T04:27:29;8.80;;;7.82;;
19802;SDS011;66074;50.764;6.090;2023-05-10T04:29:56;8.32;;;7.38;;
19802;SDS011;66074;50.764;6.090;2023-05-10T04:32:22;9.00;;;7.57;;
19802;SDS011;66074;50.764;6.090;2023-05-10T04:34:47;7.95;;;7.15;;
19802;SDS011;66074;50.764;6.090;2023-05-10T04:37:13;13.27;;;8.48;;
19802;SDS011;66074;50.764;6.090;2023-05-10T04:39:38;8.07;;;7.28;;
19802;SDS011;66074;50.764;6.090;2023-05-10T04:42:04;11.10;;;7.82;;
19802;SDS011;66074;50.764;6.090;2023-05-10T04:44:30;9.30;;;8.38;;
19802;SDS011;66074;50.764;6.090;2023-05-10T04:46:56;9.32;;;8.15;;
19802;SDS011;66074;50.764;6.090;2023-05-10T04:49:22;10.63;;;7.85;;
19802;SDS011;66074;50.764;6.090;2023-05-10T04:51:48;10.95;;;8.45;;
19802;SDS011;66074;50.764;6.090;2023-05-10T04:54:13;10.15;;;8.90;;
19802;SDS011;66074;50.764;6.090;2023-05-10T04:56:39;9.55;;;8.43;;
19802;SDS011;66074;50.764;6.090;2023-05-10T04:59:05;11.30;;;9.23;;
19802;SDS011;66074;50.764;6.090;2023-05-10T05:01:31;12.20;;;9.57;;
19802;SDS011;66074;50.764;6.090;2023-05-10T05:03:57;13.98;;;9.95;;
19802;SDS011;66074;50.764;6.090;2023-05-10T05:06:23;11.90;;;9.43;;
19802;SDS011;66074;50.764;6.090;2023-05-10T05:08:50;15.20;;;9.40;;
19802;SDS011;66074;50.764;6.090;2023-05-10T05:11:15;10.25;;;8.75;;
19802;SDS011;66074;50.764;6.090;2023-05-10T05:13:42;11.45;;;9.90;;
19802;SDS011;66074;50.764;6.090;2023-05-10T05:16:08;11.95;;;9.52;;
19802;SDS011;66074;50.764;6.090;2023-05-10T05:18:34;13.07;;;9.52;;
19802;SDS011;66074;50.764;6.090;2023-05-10T05:20:59;10.73;;;9.57;;
19802;SDS011;66074;50.764;6.090;2023-05-10T05:23:25;11.25;;;8.60;;
19802;SDS011;66074;50.764;6.090;2023-05-10T05:25:52;12.63;;;9.20;;
19802;SDS011;66074;50.764;6.090;2023-05-10T05:28:19;9.40;;;7.30;;
19802;SDS011;66074;50.764;6.090;2023-05-10T05:30:47;11.18;;;8.35;;
19802;SDS011;66074;50.764;6.090;2023-05-10T05:33:13;8.95;;;7.43;;
19802;SDS011;66074;50.764;6.090;2023-05-10T05:35:40;8.45;;;7.05;;
19802;SDS011;66074;50.764;6.090;2023-05-10T05:38:07;6.25;;;5.65;;
19802;SDS011;66074;50.764;6.090;2023-05-10T05:40:33;8.10;;;5.90;;
19802;SDS011;66074;50.764;6.090;2023-05-10T05:42:59;8.55;;;6.88;;
19802;SDS011;66074;50.764;6.090;2023-05-10T05:45:24;7.22;;;5.72;;
19802;SDS011;66074;50.764;6.090;2023-05-10T05:47:50;6.40;;;5.35;;
19802;SDS011;66074;50.764;6.090;2023-05-10T05:50:15;5.13;;;4.60;;
19802;SDS011;66074;50.764;6.090;2023-05-10T05:52:41;6.13;;;4.80;;
19802;SDS011;66074;50.764;6.090;2023-05-10T05:55:07;6.05;;;5.47;;
19802;SDS011;66074;50.764;6.090;2023-05-10T05:57:33;6.18;;;5.57;;
19802;SDS011;66074;50.764;6.090;2023-05-10T05:59:58;4.35;;;3.92;;
19802;SDS011;66074;50.764;6.090;2023-05-10T06:02:24;4.30;;;3.90;;
19802;SDS011;66074;50.764;6.090;2023-05-10T06:04:50;4.90;;;3.90;;
19802;SDS011;66074;50.764;6.090;2023-05-10T06:07:15;3.90;;;3.50;;
19802;SDS011;66074;50.764;6.090;2023-05-10T06:09:41;3.47;;;3.17;;
19802;SDS011;66074;50.764;6.090;2023-05-10T06:12:07;4.47;;;3.80;;
19802;SDS011;66074;50.764;6.090;2023-05-10T06:14:32;3.92;;;3.53;;
19802;SDS011;66074;50.764;6.090;2023-05-10T06:16:58;4.18;;;3.42;;
19802;SDS011;66074;50.764;6.090;2023-05-10T06:19:24;4.80;;;4.00;;
19802;SDS011;66074;50.764;6.090;2023-05-10T06:21:51;3.58;;;3.13;;
19802;SDS011;66074;50.764;6.090;2023-05-10T06:24:17;2.75;;;2.55;;
19802;SDS011;66074;50.764;6.090;2023-05-10T06:26:42;4.68;;;3.15;;
19802;SDS011;66074;50.764;6.090;2023-05-10T06:29:08;2.13;;;1.90;;
19802;SDS011;66074;50.764;6.090;2023-05-10T06:31:33;1.73;;;1.60;;
19802;SDS011;66074;50.764;6.090;2023-05-10T06:33:59;2.53;;;1.60;;
19802;SDS011;66074;50.764;6.090;2023-05-10T06:36:25;2.35;;;1.30;;
19802;SDS011;66074;50.764;6.090;2023-05-10T06:38:51;3.35;;;1.85;;
19802;SDS011;66074;50.764;6.090;2023-05-10T06:41:16;3.20;;;2.22;;
19802;SDS011;66074;50.764;6.090;2023-05-10T06:43:42;1.25;;;1.08;;
19802;SDS011;66074;50.764;6.090;2023-05-10T06:46:08;0.85;;;0.57;;
19802;SDS011;66074;50.764;6.090;2023-05-10T06:48:34;0.50;;;0.40;;
19802;SDS011;66074;50.764;6.090;2023-05-10T06:50:59;0.52;;;0.40;;
19802;SDS011;66074;50.764;6.090;2023-05-10T06:53:25;1.23;;;0.30;;
19802;SDS011;66074;50.764;6.090;2023-05-10T06:55:51;0.73;;;0.35;;
19802;SDS011;66074;50.764;6.090;2023-05-10T06:58:17;2.17;;;0.68;;
19802;SDS011;66074;50.764;6.090;2023-05-10T07:00:42;0.80;;;0.60;;
19802;SDS011;66074;50.764;6.090;2023-05-10T07:03:10;0.88;;;0.57;;
19802;SDS011;66074;50.764;6.090;2023-05-10T07:05:35;0.68;;;0.60;;
19802;SDS011;66074;50.764;6.090;2023-05-10T07:08:01;1.27;;;0.50;;
19802;SDS011;66074;50.764;6.090;2023-05-10T07:10:27;1.60;;;0.43;;
19802;SDS011;66074;50.764;6.090;2023-05-10T07:12:52;1.05;;;0.70;;
19802;SDS011;66074;50.764;6.090;2023-05-10T07:15:18;3.80;;;0.80;;
19802;SDS011;66074;50.764;6.090;2023-05-10T07:17:44;1.23;;;0.50;;
19802;SDS011;66074;50.764;6.090;2023-05-10T07:20:10;0.52;;;0.40;;
19802;SDS011;66074;50.764;6.090;2023-05-10T07:22:36;1.27;;;0.60;;
19802;SDS011;66074;50.764;6.090;2023-05-10T07:25:02;0.75;;;0.60;;
19802;SDS011;66074;50.764;6.090;2023-05-10T07:27:27;0.75;;;0.47;;
19802;SDS011;66074;50.764;6.090;2023-05-10T07:29:53;0.95;;;0.65;;
19802;SDS011;66074;50.764;6.090;2023-05-10T07:32:19;0.73;;;0.70;;
19802;SDS011;66074;50.764;6.090;2023-05-10T07:34:45;1.58;;;0.90;;
19802;SDS011;66074;50.764;6.090;2023-05-10T07:37:11;0.80;;;0.80;;
19802;SDS011;66074;50.764;6.090;2023-05-10T07:39:37;1.05;;;0.85;;
19802;SDS011;66074;50.764;6.090;2023-05-10T07:42:02;1.25;;;1.10;;
19802;SDS011;66074;50.764;6.090;2023-05-10T07:44:28;1.77;;;1.10;;
19802;SDS011;66074;50.764;6.090;2023-05-10T07:46:54;1.35;;;1.20;;
19802;SDS011;66074;50.764;6.090;2023-05-10T07:49:20;1.60;;;1.50;;
19802;SDS011;66074;50.764;6.090;2023-05-10T07:51:46;1.67;;;1.58;;
19802;SDS011;66074;50.764;6.090;2023-05-10T07:54:12;2.35;;;2.08;;
19802;SDS011;66074;50.764;6.090;2023-05-10T07:56:37;2.25;;;2.05;;
19802;SDS011;66074;50.764;6.090;2023-05-10T07:59:04;2.83;;;2.50;;
19802;SDS011;66074;50.764;6.090;2023-05-10T08:01:31;2.90;;;2.60;;
19802;SDS011;66074;50.764;6.090;2023-05-10T08:03:58;2.78;;;2.58;;
19802;SDS011;66074;50.764;6.090;2023-05-10T08:06:24;2.88;;;2.67;;
19802;SDS011;66074;50.764;6.090;2023-05-10T08:08:52;2.40;;;2.20;;
19802;SDS011;66074;50.764;6.090;2023-05-10T08:11:19;2.35;;;1.67;;
19802;SDS011;66074;50.764;6.090;2023-05-10T08:13:45;1.17;;;1.10;;
19802;SDS011;66074;50.764;6.090;2023-05-10T08:16:11;0.80;;;0.80;;
19802;SDS011;66074;50.764;6.090;2023-05-10T08:18:37;0.55;;;0.55;;
19802;SDS011;66074;50.764;6.090;2023-05-10T08:21:04;0.63;;;0.57;;
19802;SDS011;66074;50.764;6.090;2023-05-10T08:23:30;0.77;;;0.70;;
19802;SDS011;66074;50.764;6.090;2023-05-10T08:25:56;0.45;;;0.45;;
19802;SDS011;66074;50.764;6.090;2023-05-10T08:28:21;0.95;;;0.50;;
19802;SDS011;66074;50.764;6.090;2023-05-10T08:30:47;1.23;;;0.98;;
19802;SDS011;66074;50.764;6.090;2023-05-10T08:33:13;0.40;;;0.40;;
19802;SDS011;66074;50.764;6.090;2023-05-10T08:35:38;0.50;;;0.50;;
19802;SDS011;66074;50.764;6.090;2023-05-10T08:38:04;0.63;;;0.60;;
19802;SDS011;66074;50.764;6.090;2023-05-10T08:40:30;0.50;;;0.50;;
19802;SDS011;66074;50.764;6.090;2023-05-10T08:43:00;1.30;;;0.70;;
19802;SDS011;66074;50.764;6.090;2023-05-10T08:45:31;0.95;;;0.70;;
19802;SDS011;66074;50.764;6.090;2023-05-10T08:48:01;0.70;;;0.70;;
19802;SDS011;66074;50.764;6.090;2023-05-10T08:50:27;1.10;;;0.60;;
19802;SDS011;66074;50.764;6.090;2023-05-10T08:52:55;0.60;;;0.60;;
19802;SDS011;66074;50.764;6.090;2023-05-10T08:55:28;0.80;;;0.80;;
19802;SDS011;66074;50.764;6.090;2023-05-10T08:57:55;0.93;;;0.80;;
19802;SDS011;66074;50.764;6.090;2023-05-10T09:00:21;0.80;;;0.80;;
19802;SDS011;66074;50.764;6.090;2023-05-10T09:02:49;1.15;;;0.90;;
19802;SDS011;66074;50.764;6.090;2023-05-10T09:05:15;1.00;;;0.90;;
19802;SDS011;66074;50.764;6.090;2023-05-10T09:07:41;0.90;;;0.90;;
19802;SDS011;66074;50.764;6.090;2023-05-10T09:10:07;1.08;;;0.73;;
19802;SDS011;66074;50.764;6.090;2023-05-10T09:12:34;0.85;;;0.85;;
19802;SDS011;66074;50.764;6.090;2023-05-10T09:15:00;0.93;;;0.80;;
19802;SDS011;66074;50.764;6.090;2023-05-10T09:17:26;1.23;;;1.00;;
19802;SDS011;66074;50.764;6.090;2023-05-10T09:20:00;0.90;;;0.90;;
19802;SDS011;66074;50.764;6.090;2023-05-10T09:22:26;1.00;;;0.55;;
19802;SDS011;66074;50.764;6.090;2023-05-10T09:27:34;1.05;;;0.95;;
19802;SDS011;66074;50.764;6.090;2023-05-10T09:30:01;0.68;;;0.68;;
19802;SDS011;66074;50.764;6.090;2023-05-10T09:32:41;1.85;;;0.65;;
19802;SDS011;66074;50.764;6.090;2023-05-10T09:37:35;0.80;;;0.80;;
19802;SDS011;66074;50.764;6.090;2023-05-10T09:40:03;0.60;;;0.60;;
19802;SDS011;66074;50.764;6.090;2023-05-10T09:42:31;0.65;;;0.60;;
19802;SDS011;66074;50.764;6.090;2023-05-10T09:45:03;0.77;;;0.68;;
19802;SDS011;66074;50.764;6.090;2023-05-10T09:47:33;0.50;;;0.50;;
19802;SDS011;66074;50.764;6.090;2023-05-10T09:50:00;0.60;;;0.60;;
19802;SDS011;66074;50.764;6.090;2023-05-10T09:52:28;1.42;;;0.70;;
19802;SDS011;66074;50.764;6.090;2023-05-10T09:54:55;0.60;;;0.60;;
19802;SDS011;66074;50.764;6.090;2023-05-10T09:57:21;0.50;;;0.50;;
19802;SDS011;66074;50.764;6.090;2023-05-10T09:59:48;0.70;;;0.60;;
19802;SDS011;66074;50.764;6.090;2023-05-10T10:02:15;0.60;;;0.60;;
19802;SDS011;66074;50.764;6.090;2023-05-10T10:04:42;0.60;;;0.60;;
19802;SDS011;66074;50.764;6.090;2023-05-10T10:07:08;0.60;;;0.60;;
19802;SDS011;66074;50.764;6.090;2023-05-10T10:09:34;0.70;;;0.60;;
19802;SDS011;66074;50.764;6.090;2023-05-10T10:12:01;0.93;;;0.90;;
19802;SDS011;66074;50.764;6.090;2023-05-10T10:14:27;1.13;;;1.00;;
19802;SDS011;66074;50.764;6.090;2023-05-10T10:16:53;0.80;;;0.80;;
19802;SDS011;66074;50.764;6.090;2023-05-10T10:19:19;1.73;;;1.30;;
19802;SDS011;66074;50.764;6.090;2023-05-10T10:21:46;0.60;;;0.60;;
19802;SDS011;66074;50.764;6.090;2023-05-10T10:24:12;0.90;;;0.70;;
19802;SDS011;66074;50.764;6.090;2023-05-10T10:26:38;0.60;;;0.60;;
19802;SDS011;66074;50.764;6.090;2023-05-10T10:29:19;2.17;;;0.70;;
19802;SDS011;66074;50.764;6.090;2023-05-10T10:31:55;0.85;;;0.60;;
19802;SDS011;66074;50.764;6.090;2023-05-10T10:34:32;0.90;;;0.50;;
19802;SDS011;66074;50.764;6.090;2023-05-10T10:36:59;0.85;;;0.57;;
19802;SDS011;66074;50.764;6.090;2023-05-10T10:39:29;0.57;;;0.50;;
19802;SDS011;66074;50.764;6.090;2023-05-10T10:41:56;1.30;;;0.80;;
19802;SDS011;66074;50.764;6.090;2023-05-10T10:47:21;1.80;;;0.80;;
19802;SDS011;66074;50.764;6.090;2023-05-10T11:03:06;1.15;;;0.60;;
19802;SDS011;66074;50.764;6.090;2023-05-10T11:05:47;1.35;;;0.70;;
19802;SDS011;66074;50.764;6.090;2023-05-10T11:13:31;0.80;;;0.77;;
19802;SDS011;66074;50.764;6.090;2023-05-10T11:16:11;1.77;;;1.17;;
19802;SDS011;66074;50.764;6.090;2023-05-10T11:19:24;1.13;;;1.00;;
19802;SDS011;66074;50.764;6.090;2023-05-10T11:24:17;1.27;;;1.17;;
19802;SDS011;66074;50.764;6.090;2023-05-10T11:26:45;1.23;;;0.90;;
19802;SDS011;66074;50.764;6.090;2023-05-10T11:29:12;1.83;;;0.90;;
19802;SDS011;66074;50.764;6.090;2023-05-10T11:31:44;2.38;;;1.10;;
19802;SDS011;66074;50.764;6.090;2023-05-10T11:34:11;0.93;;;0.90;;
19802;SDS011;66074;50.764;6.090;2023-05-10T11:36:50;1.05;;;0.95;;
19802;SDS011;66074;50.764;6.090;2023-05-10T11:39:18;1.25;;;1.08;;
19802;SDS011;66074;50.764;6.090;2023-05-10T11:41:46;1.27;;;1.17;;
19802;SDS011;66074;50.764;6.090;2023-05-10T11:44:13;1.77;;;1.08;;
19802;SDS011;66074;50.764;6.090;2023-05-10T11:46:39;0.98;;;0.90;;
19802;SDS011;66074;50.764;6.090;2023-05-10T11:49:07;1.20;;;1.10;;
19802;SDS011;66074;50.764;6.090;2023-05-10T11:51:33;1.30;;;1.20;;
19802;SDS011;66074;50.764;6.090;2023-05-10T11:54:01;1.73;;;1.40;;
19802;SDS011;66074;50.764;6.090;2023-05-10T11:56:37;2.47;;;1.30;;
19802;SDS011;66074;50.764;6.090;2023-05-10T11:59:04;5.55;;;1.55;;
19802;SDS011;66074;50.764;6.090;2023-05-10T12:01:30;1.88;;;1.38;;
19802;SDS011;66074;50.764;6.090;2023-05-10T12:03:56;3.55;;;1.45;;
19802;SDS011;66074;50.764;6.090;2023-05-10T12:06:26;1.80;;;1.20;;
19802;SDS011;66074;50.764;6.090;2023-05-10T12:08:56;1.40;;;1.35;;
19802;SDS011;66074;50.764;6.090;2023-05-10T12:11:24;1.42;;;1.23;;
19802;SDS011;66074;50.764;6.090;2023-05-10T12:13:52;2.22;;;1.63;;
19802;SDS011;66074;50.764;6.090;2023-05-10T12:16:19;2.25;;;1.27;;
19802;SDS011;66074;50.764;6.090;2023-05-10T12:18:50;1.48;;;1.38;;
19802;SDS011;66074;50.764;6.090;2023-05-10T12:21:16;3.15;;;1.80;;
19802;SDS011;66074;50.764;6.090;2023-05-10T12:23:42;2.30;;;2.10;;
19802;SDS011;66074;50.764;6.090;2023-05-10T12:26:10;2.42;;;2.20;;
19802;SDS011;66074;50.764;6.090;2023-05-10T12:28:36;2.10;;;1.98;;
19802;SDS011;66074;50.764;6.090;2023-05-10T12:31:03;2.42;;;2.22;;
19802;SDS011;66074;50.764;6.090;2023-05-10T12:33:42;2.60;;;2.40;;
19802;SDS011;66074;50.764;6.090;2023-05-10T12:36:09;2.70;;;2.50;;
19802;SDS011;66074;50.764;6.090;2023-05-10T12:38:37;2.45;;;2.25;;
19802;SDS011;66074;50.764;6.090;2023-05-10T12:41:05;2.60;;;2.40;;
19802;SDS011;66074;50.764;6.090;2023-05-10T12:43:32;3.25;;;2.72;;
19802;SDS011;66074;50.764;6.090;2023-05-10T12:45:58;3.33;;;3.03;;
19802;SDS011;66074;50.764;6.090;2023-05-10T12:48:29;3.75;;;2.75;;
19802;SDS011;66074;50.764;6.090;2023-05-10T12:50:56;4.07;;;3.45;;
19802;SDS011;66074;50.764;6.090;2023-05-10T12:53:22;4.50;;;4.10;;
19802;SDS011;66074;50.764;6.090;2023-05-10T12:55:47;3.30;;;3.10;;
19802;SDS011;66074;50.764;6.090;2023-05-10T12:58:13;3.75;;;3.40;;
19802;SDS011;66074;50.764;6.090;2023-05-10T13:00:39;3.55;;;3.33;;
19802;SDS011;66074;50.764;6.090;2023-05-10T13:03:05;3.38;;;3.10;;
19802;SDS011;66074;50.764;6.090;2023-05-10T13:05:33;3.35;;;3.15;;
19802;SDS011;66074;50.764;6.090;2023-05-10T13:07:59;3.67;;;3.38;;
19802;SDS011;66074;50.764;6.090;2023-05-10T13:10:25;3.28;;;2.90;;
19802;SDS011;66074;50.764;6.090;2023-05-10T13:12:51;3.20;;;2.55;;
19802;SDS011;66074;50.764;6.090;2023-05-10T13:15:16;3.08;;;2.88;;
19802;SDS011;66074;50.764;6.090;2023-05-10T13:17:42;3.28;;;3.08;;
19802;SDS011;66074;50.764;6.090;2023-05-10T13:20:08;5.30;;;3.40;;
19802;SDS011;66074;50.764;6.090;2023-05-10T13:22:34;3.10;;;2.80;;
19802;SDS011;66074;50.764;6.090;2023-05-10T13:25:01;3.38;;;3.00;;
19802;SDS011;66074;50.764;6.090;2023-05-10T13:27:27;3.85;;;3.13;;
19802;SDS011;66074;50.764;6.090;2023-05-10T13:29:53;2.83;;;2.63;;
19802;SDS011;66074;50.764;6.090;2023-05-10T13:32:19;3.65;;;3.13;;
19802;SDS011;66074;50.764;6.090;2023-05-10T13:34:45;2.63;;;2.42;;
19802;SDS011;66074;50.764;6.090;2023-05-10T13:37:11;3.30;;;3.00;;
19802;SDS011;66074;50.764;6.090;2023-05-10T13:39:37;3.10;;;2.70;;
19802;SDS011;66074;50.764;6.090;2023-05-10T13:42:03;2.97;;;2.67;;
19802;SDS011;66074;50.764;6.090;2023-05-10T13:44:29;3.00;;;2.70;;
19802;SDS011;66074;50.764;6.090;2023-05-10T13:46:55;2.60;;;2.40;;
19802;SDS011;66074;50.764;6.090;2023-05-10T13:49:21;2.95;;;2.72;;
19802;SDS011;66074;50.764;6.090;2023-05-10T13:51:47;2.50;;;2.13;;
19802;SDS011;66074;50.764;6.090;2023-05-10T13:54:12;2.47;;;2.20;;
19802;SDS011;66074;50.764;6.090;2023-05-10T13:56:38;2.63;;;2.20;;
19802;SDS011;66074;50.764;6.090;2023-05-10T13:59:05;2.35;;;2.10;;
19802;SDS011;66074;50.764;6.090;2023-05-10T14:01:32;2.33;;;2.13;;
19802;SDS011;66074;50.764;6.090;2023-05-10T14:03:58;2.17;;;2.03;;
19802;SDS011;66074;50.764;6.090;2023-05-10T14:06:24;2.53;;;2.20;;
19802;SDS011;66074;50.764;6.090;2023-05-10T14:08:50;3.25;;;2.42;;
19802;SDS011;66074;50.764;6.090;2023-05-10T14:11:15;2.70;;;2.50;;
19802;SDS011;66074;50.764;6.090;2023-05-10T14:13:41;2.90;;;2.60;;
19802;SDS011;66074;50.764;6.090;2023-05-10T14:16:07;4.88;;;2.10;;
19802;SDS011;66074;50.764;6.090;2023-05-10T14:18:32;2.90;;;2.60;;
19802;SDS011;66074;50.764;6.090;2023-05-10T14:20:58;2.17;;;1.98;;
19802;SDS011;66074;50.764;6.090;2023-05-10T14:23:23;2.33;;;2.13;;
19802;SDS011;66074;50.764;6.090;2023-05-10T14:25:50;3.90;;;2.75;;
19802;SDS011;66074;50.764;6.090;2023-05-10T14:28:16;2.95;;;2.38;;
19802;SDS011;66074;50.764;6.090;2023-05-10T14:30:46;2.95;;;2.13;;
19802;SDS011;66074;50.764;6.090;2023-05-10T14:33:12;2.72;;;2.53;;
19802;SDS011;66074;50.764;6.090;2023-05-10T14:35:38;2.60;;;2.35;;
19802;SDS011;66074;50.764;6.090;2023-05-10T14:38:03;4.15;;;2.75;;
19802;SDS011;66074;50.764;6.090;2023-05-10T14:40:29;2.38;;;2.17;;
19802;SDS011;66074;50.764;6.090;2023-05-10T14:42:55;3.15;;;2.63;;
19802;SDS011;66074;50.764;6.090;2023-05-10T14:45:21;3.97;;;3.13;;
19802;SDS011;66074;50.764;6.090;2023-05-10T14:47:47;3.15;;;2.63;;
19802;SDS011;66074;50.764;6.090;2023-05-10T14:50:14;3.70;;;3.03;;
19802;SDS011;66074;50.764;6.090;2023-05-10T14:52:40;3.58;;;2.90;;
19802;SDS011;66074;50.764;6.090;2023-05-10T14:55:06;3.45;;;3.03;;
19802;SDS011;66074;50.764;6.090;2023-05-10T14:57:32;3.85;;;3.42;;
19802;SDS011;66074;50.764;6.090;2023-05-10T14:59:58;3.50;;;3.05;;
19802;SDS011;66074;50.764;6.090;2023-05-10T15:02:23;3.97;;;3.57;;
19802;SDS011;66074;50.764;6.090;2023-05-10T15:04:49;5.07;;;2.65;;
19802;SDS011;66074;50.764;6.090;2023-05-10T15:07:16;3.10;;;2.47;;
19802;SDS011;66074;50.764;6.090;2023-05-10T15:09:43;2.55;;;1.92;;
19802;SDS011;66074;50.764;6.090;2023-05-10T15:12:11;2.55;;;1.80;;
19802;SDS011;66074;50.764;6.090;2023-05-10T15:14:37;2.25;;;2.05;;
19802;SDS011;66074;50.764;6.090;2023-05-10T15:17:03;2.10;;;1.90;;
19802;SDS011;66074;50.764;6.090;2023-05-10T15:19:31;2.20;;;2.00;;
19802;SDS011;66074;50.764;6.090;2023-05-10T15:21:58;1.45;;;1.30;;
19802;SDS011;66074;50.764;6.090;2023-05-10T15:24:24;1.00;;;0.88;;
19802;SDS011;66074;50.764;6.090;2023-05-10T15:26:49;1.05;;;0.95;;
19802;SDS011;66074;50.764;6.090;2023-05-10T15:29:15;0.80;;;0.80;;
19802;SDS011;66074;50.764;6.090;2023-05-10T15:31:45;1.00;;;0.90;;
19802;SDS011;66074;50.764;6.090;2023-05-10T15:34:13;0.93;;;0.82;;
19802;SDS011;66074;50.764;6.090;2023-05-10T15:36:39;0.90;;;0.90;;
19802;SDS011;66074;50.764;6.090;2023-05-10T15:39:04;2.22;;;1.60;;
19802;SDS011;66074;50.764;6.090;2023-05-10T15:41:30;0.50;;;0.50;;